Murrurundi, Australia
Current Conditions -  °F | °C
As of 10:30 AM on Thursday 23 Oct 2014 (Local Time) from YSTW Reporting Station
Clear Clear  
Wind Chill: 79°   Ceiling: Unl
Heat Index: 79°   Visibility: 6mi
Dew Point: 46°   Wind: 12mph
Humidity: 32%   Direction: 350°N
Pressure: 30.15"   Gusts: NA
Location:  31.76°S, 150.83°E
Report Text: YSTW 222330Z AUTO 35010KT 9999 // NCD 26/08 Q1021
Loading
Personal Weather Stations






























Interactive Weather Map
Tropical Storm Tracking
New forecast layout! Learn more

10-Day Weather Forecast

Advertisements
Track Severe Weather on mobile